FW7828 Weather Reports


Display with metric or nautical units.
time (UTC)temp
F
wind
direction
speed
MPH
gust
MPH
rain 1hr
in
rain 24hr
in
rain mn
in
humidity
%
barometer
mb
20240622193713 93 182 1.0 1.0 0.00 0.00 0.00 57 1015.6
20240622193212 93 170 3.0 3.0 0.00 0.00 0.00 57 1015.9
20240622192711 94 190 0.0 0.0 0.00 0.00 0.00 55 1015.9
20240622192210 94 175 1.0 2.0 0.00 0.00 0.00 55 1016.0
20240622191708 94 183 1.0 2.0 0.00 0.00 0.00 56 1016.0
20240622191205 94 239 1.0 2.0 0.00 0.00 0.00 53 1016.4
20240622190704 94 233 0.0 0.0 0.00 0.00 0.00 53 1016.2
20240622190203 93 184 1.0 2.0 0.00 0.00 0.00 55 1016.4
20240622185702 94 175 1.0 2.0 0.00 0.00 0.00 55 1016.3
20240622185202 94 181 1.0 1.0 0.00 0.00 0.00 56 1016.4
20240622184701 93 186 1.0 1.0 0.00 0.00 0.00 56 1016.5
20240622184159 94 185 1.0 1.0 0.00 0.00 0.00 55 1016.6
20240622183658 94 192 0.0 0.0 0.00 0.00 0.00 54 1016.5
20240622183156 93 186 2.0 2.0 0.00 0.00 0.00 54 1016.8
20240622182655 93 180 1.0 2.0 0.00 0.00 0.00 56 1016.5
20240622182154 93 176 1.0 2.0 0.00 0.00 0.00 56 1016.8
20240622181653 93 171 2.0 2.0 0.00 0.00 0.00 55 1016.9
20240622181152 93 183 1.0 1.0 0.00 0.00 0.00 59 1016.9
20240622180650 92 191 1.0 2.0 0.00 0.00 0.00 59 1017.0
20240622180149 91 178 0.0 1.0 0.00 0.00 0.00 61 1017.0
20240622175646 92 175 2.0 2.0 0.00 0.00 0.00 63 1017.2
20240622175143 91 191 1.0 2.0 0.00 0.00 0.00 64 1017.3
20240622174642 91 168 1.0 2.0 0.00 0.00 0.00 64 1017.2
20240622174141 91 192 0.0 1.0 0.00 0.00 0.00 65 1017.3
20240622173639 92 171 1.0 1.0 0.00 0.00 0.00 67 1017.5
20240622173137 91 183 1.0 1.0 0.00 0.00 0.00 67 1017.7
20240622172637 91 180 1.0 2.0 0.00 0.00 0.00 65 1017.6
20240622172136 90 182 1.0 2.0 0.00 0.00 0.00 68 1017.6
20240622171635 90 180 1.0 2.0 0.00 0.00 0.00 67 1017.6
20240622171134 90 178 1.0 1.0 0.00 0.00 0.00 67 1017.6
20240622170632 89 181 2.0 3.0 0.00 0.00 0.00 68 1017.8
20240622170131 89 182 4.0 6.0 0.00 0.00 0.00 70 1017.7
20240622165631 89 136 2.0 2.0 0.00 0.00 0.00 71 1017.9
20240622165130 89 162 1.0 2.0 0.00 0.00 0.00 71 1017.8
20240622164628 89 185 0.0 1.0 0.00 0.00 0.00 71 1017.9
20240622164126 88 165 2.0 3.0 0.00 0.00 0.00 74 1018.1
20240622163625 87 172 1.0 2.0 0.00 0.00 0.00 74 1018.1
20240622163123 87 164 1.0 2.0 0.00 0.00 0.00 74 1018.1
20240622162622 87 181 1.0 1.0 0.00 0.00 0.00 74 1018.3
20240622162121 87 125 1.0 2.0 0.00 0.00 0.00 72 1018.2
20240622161620 87 164 2.0 2.0 0.00 0.00 0.00 73 1018.4
20240622161119 87 143 2.0 3.0 0.00 0.00 0.00 73 1018.3
20240622160619 87 166 3.0 3.0 0.00 0.00 0.00 74 1018.5
20240622160118 87 178 2.0 2.0 0.00 0.00 0.00 75 1018.3
20240622155617 87 147 3.0 3.0 0.00 0.00 0.00 74 1018.3
20240622155116 87 176 1.0 1.0 0.00 0.00 0.00 73 1018.2
20240622154615 87 190 1.0 1.0 0.00 0.00 0.00 76 1018.6
20240622154113 86 181 1.0 1.0 0.00 0.00 0.00 75 1018.4
20240622153613 86 147 2.0 3.0 0.00 0.00 0.00 75 1018.7
20240622153111 86 101 1.0 2.0 0.00 0.00 0.00 75 1018.7
20240622152611 85 176 2.0 2.0 0.00 0.00 0.00 75 1018.4
20240622152109 84 168 2.0 2.0 0.00 0.00 0.00 80 1019.0
20240622151607 84 174 2.0 2.0 0.00 0.00 0.00 82 1018.6
20240622151107 83 148 1.0 1.0 0.00 0.00 0.00 83 1018.9
20240622150602 83 185 1.0 2.0 0.00 0.00 0.00 86 1018.9
20240622150102 82 168 3.0 3.0 0.00 0.00 0.00 86 1018.9
20240622145601 82 149 2.0 2.0 0.00 0.00 0.00 87 1019.3
20240622145100 83 192 2.0 3.0 0.00 0.00 0.00 87 1019.2
20240622144559 83 177 1.0 2.0 0.00 0.00 0.00 87 1019.0
20240622144057 82 186 3.0 3.0 0.00 0.00 0.00 88 1019.1
20240622143556 82 122 1.0 2.0 0.00 0.00 0.00 89 1019.0
20240622143054 82 280 2.0 3.0 0.00 0.00 0.00 88 1019.0
20240622142553 82 186 6.0 8.0 0.00 0.00 0.00 89 1019.1
20240622142052 81 172 4.0 7.0 0.00 0.00 0.00 89 1019.3
20240622141551 81 172 5.0 9.0 0.00 0.00 0.00 90 1019.1
20240622141050 81 63 3.0 3.0 0.00 0.00 0.00 90 1019.0
20240622140548 81 121 1.0 1.0 0.00 0.00 0.00 90 1019.2
20240622140047 81 37 2.0 2.0 0.00 0.00 0.00 90 1019.1
20240622135546 81 169 2.0 2.0 0.00 0.00 0.00 90 1019.2
20240622135044 81 167 1.0 2.0 0.00 0.00 0.00 90 1019.2
20240622134542 80 193 1.0 1.0 0.00 0.00 0.00 91 1019.2
20240622134041 80 325 1.0 3.0 0.00 0.00 0.00 90 1019.3
20240622133540 80 274 0.0 0.0 0.00 0.00 0.00 91 1019.2
20240622133038 80 163 3.0 3.0 0.00 0.00 0.00 91 1019.3
20240622132537 79 169 2.0 3.0 0.00 0.00 0.00 93 1019.4
20240622132035 79 166 2.0 2.0 0.00 0.00 0.00 93 1019.6
20240622131533 79 177 2.0 2.0 0.00 0.00 0.00 93 1019.6
20240622131032 79 168 2.0 2.0 0.00 0.00 0.00 94 1019.7
20240622130531 79 178 1.0 1.0 0.00 0.00 0.00 94 1019.8
20240622130029 79 107 3.0 3.0 0.00 0.00 0.00 94 1019.8
20240622125527 79 161 2.0 2.0 0.00 0.00 0.00 94 1019.7
20240622125025 78 180 3.0 3.0 0.00 0.00 0.00 94 1019.8
20240622124523 78 181 1.0 1.0 0.00 0.00 0.00 94 1019.7
20240622124022 79 162 2.0 2.0 0.00 0.00 0.00 94 1019.8
20240622123520 79 301 1.0 1.0 0.00 0.00 0.00 95 1019.6
20240622123019 78 159 1.0 2.0 0.00 0.00 0.00 95 1019.5
20240622122516 78 233 1.0 1.0 0.00 0.00 0.00 97 1019.5
20240622122016 78 188 2.0 2.0 0.00 0.00 0.00 97 1019.6
20240622121515 77 151 0.0 1.0 0.00 0.00 0.00 98 1019.3
20240622121014 78 147 0.0 1.0 0.00 0.00 0.00 98 1019.6
20240622120514 77 155 1.0 1.0 0.00 0.00 0.00 98 1019.6
20240622120012 77 105 2.0 2.0 0.00 0.00 0.00 98 1019.5
20240622115512 77 155 0.0 1.0 0.00 0.00 0.00 98 1019.5
20240622115010 77 159 1.0 1.0 0.00 0.00 0.00 98 1019.6
20240622114510 77 157 1.0 2.0 0.00 0.00 0.00 99 1019.7
20240622114008 77 178 1.0 2.0 0.00 0.00 0.00 99 1019.7
20240622113508 77 193 0.0 1.0 0.00 0.00 0.00 99 1019.7
20240622113005 77 159 1.0 1.0 0.00 0.00 0.00 99 1019.6
20240622112503 77 201 1.0 1.0 0.00 0.00 0.00 99 1019.8
20240622112002 77 201 0.0 1.0 0.00 0.00 0.00 99 1019.6
20240622111501 76 165 1.0 1.0 0.00 0.00 0.00 99 1019.5
20240622111001 76 264 0.0 0.0 0.00 0.00 0.00 99 1019.6
20240622110500 76 166 3.0 6.0 0.00 0.00 0.00 99 1019.6
20240622105959 76 273 0.0 1.0 0.00 0.00 0.00 99 1019.6
20240622105457 76 209 0.0 1.0 0.00 0.00 0.00 99 1019.6
20240622104956 76 343 0.0 1.0 0.00 0.00 0.00 99 1019.7
20240622104454 76 183 2.0 2.0 0.00 0.00 0.00 99 1019.6
20240622103953 76 175 0.0 0.0 0.00 0.00 0.00 99 1019.7
20240622103450 76 192 0.0 0.0 0.00 0.00 0.00 99 1019.8
20240622102948 76 276 0.0 0.0 0.00 0.00 0.00 99 1019.8
20240622102446 76 201 0.0 0.0 0.00 0.00 0.00 99 1019.5
20240622101944 75 80 0.0 0.0 0.00 0.00 0.00 99 1019.6
20240622101443 75 80 0.0 0.0 0.00 0.00 0.00 99 1019.6
20240622100940 75 79 0.0 0.0 0.00 0.00 0.00 99 1019.4
20240622100440 75 218 0.0 0.0 0.00 0.00 0.00 99 1019.6
20240622095939 75 275 0.0 0.0 0.00 0.00 0.00 99 1019.5
20240622095438 75 288 0.0 0.0 0.00 0.00 0.00 99 1019.6
20240622094937 75 287 1.0 1.0 0.00 0.00 0.00 99 1019.5
20240622094435 75 305 0.0 0.0 0.00 0.00 0.00 99 1019.5
20240622093933 75 227 0.0 0.0 0.00 0.00 0.00 99 1019.3
20240622093431 75 218 0.0 0.0 0.00 0.00 0.00 99 1019.3
20240622092931 75 232 0.0 0.0 0.00 0.00 0.00 99 1019.4
20240622092431 75 231 0.0 0.0 0.00 0.00 0.00 99 1019.3
20240622091930 75 203 1.0 1.0 0.00 0.00 0.00 99 1019.1
20240622091428 75 292 0.0 0.0 0.00 0.00 0.00 99 1019.4
20240622090928 75 292 0.0 0.0 0.00 0.00 0.00 99 1019.1
20240622090428 75 292 0.0 0.0 0.00 0.00 0.00 99 1019.3
20240622085927 75 233 0.0 0.0 0.00 0.00 0.00 99 1019.2
20240622085427 75 233 0.0 0.0 0.00 0.00 0.00 99 1019.3
20240622084925 75 283 0.0 0.0 0.00 0.00 0.00 99 1019.3
20240622084423 75 292 0.0 0.0 0.00 0.00 0.00 99 1019.5
20240622083923 75 220 0.0 0.0 0.00 0.00 0.00 99 1019.3
20240622083421 75 234 1.0 1.0 0.00 0.00 0.00 99 1019.4
20240622082919 75 286 0.0 0.0 0.00 0.00 0.00 99 1019.3
20240622082419 75 285 0.0 0.0 0.00 0.00 0.00 99 1019.4
20240622081917 74 300 1.0 1.0 0.00 0.00 0.00 99 1019.6
20240622081416 74 262 1.0 2.0 0.00 0.00 0.00 99 1019.3
20240622080914 74 234 0.0 0.0 0.00 0.00 0.00 99 1019.5
20240622080413 74 233 0.0 0.0 0.00 0.00 0.00 99 1019.6
20240622075911 74 244 0.0 0.0 0.00 0.00 0.00 99 1019.6
20240622075410 74 244 0.0 0.0 0.00 0.00 0.00 99 1019.4
20240622074905 74 244 0.0 0.0 0.00 0.00 0.00 99 1019.7
20240622074405 74 244 0.0 0.0 0.00 0.00 0.00 99 1019.6
20240622073903 74 199 0.0 1.0 0.00 0.00 0.00 99 1019.6
20240622073401 74 217 0.0 0.0 0.00 0.00 0.00 99 1019.6
20240622072900 74 216 0.0 0.0 0.00 0.00 0.00 99 1019.6
20240622072359 74 211 0.0 0.0 0.00 0.00 0.00 99 1019.8
20240622071855 74 213 0.0 0.0 0.00 0.00 0.00 99 1019.8
20240622071351 74 210 1.0 1.0 0.00 0.00 0.00 99 1019.6
20240622070842 74 210 1.0 1.0 0.00 0.00 0.00 99 1019.7
20240622070341 74 212 0.0 0.0 0.00 0.00 0.00 99 1020.0
20240622065840 74 210 0.0 0.0 0.00 0.00 0.00 99 1019.7
20240622065339 74 207 0.0 0.0 0.00 0.00 0.00 99 1019.8
20240622064835 74 217 0.0 0.0 0.00 0.00 0.00 99 1019.8
20240622064334 74 217 0.0 0.0 0.00 0.00 0.00 99 1020.1
20240622063832 74 217 0.0 0.0 0.00 0.00 0.00 99 1020.1
20240622063329 75 217 0.0 0.0 0.00 0.00 0.00 99 1019.9
20240622062827 74 213 0.0 0.0 0.00 0.00 0.00 99 1020.0
20240622062326 74 213 0.0 0.0 0.00 0.00 0.00 99 1020.1
20240622061824 75 213 0.0 0.0 0.00 0.00 0.00 99 1020.1
20240622061322 75 210 0.0 0.0 0.00 0.00 0.00 99 1020.1
20240622060821 75 210 0.0 0.0 0.00 0.00 0.00 99 1020.1
20240622060320 75 210 0.0 0.0 0.00 0.00 0.00 99 1020.2
20240622055819 75 210 0.0 0.0 0.00 0.00 0.00 99 1020.3
20240622055319 75 210 0.0 0.0 0.00 0.00 0.00 99 1020.2
20240622054818 75 210 0.0 0.0 0.00 0.00 0.00 99 1020.3
20240622054315 75 210 0.0 0.0 0.00 0.00 0.00 99 1020.3
20240622053814 75 210 0.0 0.0 0.00 0.00 0.00 99 1020.2
20240622053313 75 210 0.0 0.0 0.00 0.00 0.00 99 1020.3
20240622052811 75 198 0.0 0.0 0.00 0.00 0.00 99 1020.3
20240622052309 75 195 0.0 0.0 0.00 0.00 0.00 99 1020.2
20240622051807 75 202 0.0 0.0 0.00 0.00 0.00 99 1020.4
20240622051306 75 202 0.0 0.0 0.00 0.00 0.00 98 1020.7
20240622050805 75 202 0.0 0.0 0.00 0.00 0.00 98 1020.5
20240622050305 75 193 0.0 0.0 0.00 0.00 0.00 98 1020.4
20240622045804 75 193 0.0 0.0 0.00 0.00 0.00 98 1020.5
20240622045306 75 193 0.0 0.0 0.00 0.00 0.00 98 1020.6
20240622044803 76 193 0.0 0.0 0.00 0.00 0.00 97 1020.7
20240622044302 76 193 0.0 0.0 0.00 0.00 0.00 97 1020.6
20240622043800 76 191 0.0 0.0 0.00 0.00 0.00 97 1020.5
20240622043258 76 191 0.0 0.0 0.00 0.00 0.00 97 1020.5
20240622042757 76 193 0.0 0.0 0.00 0.00 0.00 96 1020.5
20240622042257 77 191 0.0 0.0 0.00 0.00 0.00 97 1020.6
20240622041752 77 188 1.0 1.0 0.00 0.00 0.00 97 1020.6
20240622041250 77 187 1.0 1.0 0.00 0.00 0.00 96 1020.5
20240622040746 77 193 1.0 1.0 0.00 0.00 0.00 96 1020.7
20240622040246 77 182 1.0 2.0 0.00 0.00 0.00 96 1020.6
20240622035745 77 192 1.0 1.0 0.00 0.00 0.00 96 1020.6
20240622035244 77 184 1.0 2.0 0.00 0.00 0.00 96 1020.4
20240622034743 77 189 1.0 1.0 0.00 0.00 0.00 96 1020.4
20240622034242 77 185 1.0 1.0 0.00 0.00 0.00 96 1020.5
20240622033741 78 184 1.0 1.0 0.00 0.00 0.00 96 1020.5
20240622033240 78 191 0.0 1.0 0.00 0.00 0.00 96 1020.5
20240622032738 78 191 0.0 1.0 0.00 0.00 0.00 95 1020.4
20240622032236 78 192 1.0 1.0 0.00 0.00 0.00 95 1020.5
20240622031734 78 180 1.0 2.0 0.00 0.00 0.00 96 1020.2
20240622031234 78 198 0.0 1.0 0.00 0.00 0.00 95 1020.3
20240622030732 78 195 1.0 1.0 0.00 0.00 0.00 95 1020.4
20240622030232 78 196 1.0 1.0 0.00 0.00 0.00 94 1020.3
20240622025731 78 179 0.0 0.0 0.00 0.00 0.00 94 1020.2
20240622025229 78 181 1.0 1.0 0.00 0.00 0.00 94 1020.4
20240622024726 78 180 0.0 1.0 0.00 0.00 0.00 94 1020.3
20240622024226 78 179 1.0 1.0 0.00 0.00 0.00 93 1020.3
20240622023725 78 179 0.0 0.0 0.00 0.00 0.00 93 1020.3
20240622023224 78 188 0.0 1.0 0.00 0.00 0.00 93 1020.2
20240622022722 78 180 1.0 1.0 0.00 0.00 0.00 92 1020.4
20240622022220 78 180 0.0 0.0 0.00 0.00 0.00 92 1020.4
20240622021719 78 179 1.0 2.0 0.00 0.00 0.00 91 1020.5
20240622021218 78 198 0.0 0.0 0.00 0.00 0.00 91 1020.5
20240622020716 78 192 0.0 0.0 0.00 0.00 0.00 91 1020.5
20240622020214 79 187 1.0 1.0 0.00 0.00 0.00 90 1020.2
20240622015712 79 187 0.0 1.0 0.00 0.00 0.00 90 1020.4
20240622015211 79 175 2.0 2.0 0.00 0.00 0.00 89 1020.4
20240622014711 79 201 0.0 0.0 0.00 0.00 0.00 89 1020.3
20240622014210 79 192 1.0 1.0 0.00 0.00 0.00 89 1020.4
20240622013707 79 192 1.0 1.0 0.00 0.00 0.00 90 1020.2
20240622013205 79 192 0.0 1.0 0.00 0.00 0.00 89 1020.0
20240622012702 79 192 1.0 1.0 0.00 0.00 0.00 89 1020.1
20240622012201 80 188 1.0 1.0 0.00 0.00 0.00 88 1020.1
20240622011658 80 185 1.0 1.0 0.00 0.00 0.00 88 1019.9
20240622011157 80 182 1.0 1.0 0.00 0.00 0.00 88 1019.9
20240622010655 80 178 1.0 1.0 0.00 0.00 0.00 88 1019.8
20240622010154 80 177 1.0 2.0 0.00 0.00 0.00 88 1019.7
20240622005652 80 170 1.0 1.0 0.00 0.00 0.00 87 1019.8
20240622005149 80 142 2.0 2.0 0.00 0.00 0.00 86 1019.8
20240622004650 81 178 1.0 1.0 0.00 0.00 0.00 86 1019.7
20240622004149 81 178 1.0 1.0 0.00 0.00 0.00 86 1019.7
20240622003649 81 182 1.0 1.0 0.00 0.00 0.00 86 1019.8
20240622003147 81 192 1.0 1.0 0.00 0.00 0.00 86 1019.7
20240622002645 82 178 1.0 1.0 0.00 0.00 0.00 86 1019.7
20240622002143 82 167 1.0 2.0 0.00 0.00 0.00 87 1019.8
20240622001643 82 188 1.0 1.0 0.00 0.00 0.00 86 1019.6
20240622001142 82 179 1.0 2.0 0.00 0.00 0.00 86 1019.7
20240622000642 82 172 2.0 2.0 0.00 0.00 0.00 85 1019.5
20240622000141 82 172 1.0 1.0 0.00 0.00 0.00 86 1019.5
20240621235641 82 167 2.0 2.0 0.00 0.00 0.00 85 1019.6
20240621235141 82 182 2.0 2.0 0.00 0.00 0.00 85 1019.6
20240621234640 81 88 1.0 1.0 0.00 0.00 0.00 86 1019.7
20240621234139 81 88 0.0 0.0 0.00 0.00 0.00 87 1019.5
20240621233637 81 88 0.0 0.0 0.00 0.00 0.00 87 1019.5
20240621233137 81 88 1.0 1.0 0.00 0.00 0.00 87 1019.7
20240621232636 81 88 0.0 0.0 0.00 0.00 0.00 85 1019.6
20240621232134 81 68 0.0 1.0 0.00 0.00 0.00 85 1019.8
20240621231632 81 49 0.0 1.0 0.00 0.00 0.00 85 1019.7
20240621231130 82 3 2.0 2.0 0.00 0.00 0.00 84 1019.7
20240621230629 82 67 0.0 0.0 0.00 0.00 0.00 84 1019.6
20240621230129 82 354 1.0 1.0 0.00 0.00 0.00 83 1019.8
20240621225627 82 106 0.0 0.0 0.00 0.00 0.00 83 1019.7
20240621225127 82 88 1.0 1.0 0.00 0.00 0.00 82 1019.5
20240621224626 82 88 1.0 1.0 0.00 0.00 0.00 81 1019.6
20240621224125 82 88 1.0 1.0 0.00 0.00 0.00 80 1019.9
20240621223623 82 42 0.0 1.0 0.00 0.00 0.00 80 1019.7
20240621223123 83 5 1.0 1.0 0.00 0.00 0.00 79 1019.5
20240621222622 83 346 2.0 3.0 0.00 0.00 0.00 78 1019.5
20240621222121 83 24 0.0 1.0 0.00 0.00 0.00 77 1019.5
20240621221620 84 32 1.0 2.0 0.00 0.00 0.00 76 1019.6
20240621221119 84 250 1.0 2.0 0.00 0.00 0.00 76 1019.6
20240621220618 84 105 1.0 2.0 0.00 0.00 0.00 75 1019.5
20240621220110 84 34 1.0 1.0 0.00 0.00 0.00 74 1019.6
20240621215609 85 21 1.0 1.0 0.00 0.00 0.00 73 1019.7
20240621215108 85 81 1.0 2.0 0.00 0.00 0.00 72 1019.9
20240621214608 85 156 1.0 1.0 0.00 0.00 0.00 71 1019.7
20240621214107 85 354 0.0 1.0 0.00 0.00 0.00 71 1019.9
20240621213606 85 112 3.0 3.0 0.00 0.00 0.00 71 1020.0
20240621213106 85 112 3.0 3.0 0.00 0.00 0.00 71 1019.9
20240621212604 85 90 2.0 2.0 0.00 0.00 0.00 71 1020.0
20240621212102 86 119 3.0 3.0 0.00 0.00 0.00 68 1020.1
20240621211601 86 0 1.0 2.0 0.00 0.00 0.00 69 1020.1
20240621211100 86 93 3.0 3.0 0.00 0.00 0.00 68 1020.0
20240621210558 86 120 2.0 2.0 0.00 0.00 0.00 66 1020.2
20240621210058 86 347 1.0 2.0 0.00 0.00 0.00 66 1020.2
20240621205556 86 358 3.0 3.0 0.00 0.00 0.00 65 1020.3
20240621205055 87 6 2.0 2.0 0.00 0.00 0.00 66 1020.4
20240621204553 85 348 1.0 2.0 0.00 0.00 0.00 69 1020.6
20240621204053 86 134 2.0 2.0 0.00 0.00 0.00 66 1020.4
20240621203552 87 116 2.0 2.0 0.00 0.00 0.00 67 1020.5
20240621203051 87 91 1.0 2.0 0.00 0.00 0.00 67 1020.5
20240621202547 86 120 3.0 5.0 0.00 0.00 0.00 66 1020.3
20240621202046 86 92 3.0 3.0 0.00 0.00 0.00 68 1020.7
20240621201544 86 101 2.0 2.0 0.00 0.00 0.00 67 1020.5
20240621201043 86 101 2.0 3.0 0.00 0.00 0.00 65 1020.6
20240621200542 87 147 3.0 3.0 0.00 0.00 0.00 65 1020.7
20240621200041 87 94 2.0 2.0 0.00 0.00 0.00 66 1020.9
20240621195540 86 350 1.0 1.0 0.00 0.00 0.00 65 1020.8
20240621195039 87 339 3.0 3.0 0.00 0.00 0.00 65 1020.9
20240621194539 86 237 2.0 3.0 0.00 0.00 0.00 66 1020.8
20240621194037 86 66 0.0 0.0 0.00 0.00 0.00 68 1021.0